sensor_id;sensor_type;location;lat;lon;timestamp;P1;durP1;ratioP1;P2;durP2;ratioP2
80852;SDS011;70270;43.434;28.338;2024-03-23T00:56:36;14.48;;;9.30;;
80852;SDS011;70270;43.434;28.338;2024-03-23T00:59:21;15.10;;;9.50;;
80852;SDS011;70270;43.434;28.338;2024-03-23T01:02:06;15.80;;;8.70;;
80852;SDS011;70270;43.434;28.338;2024-03-23T01:04:51;16.65;;;10.30;;
80852;SDS011;70270;43.434;28.338;2024-03-23T01:07:35;14.25;;;8.82;;
80852;SDS011;70270;43.434;28.338;2024-03-23T01:10:20;15.65;;;9.88;;
80852;SDS011;70270;43.434;28.338;2024-03-23T01:13:04;13.27;;;8.73;;
80852;SDS011;70270;43.434;28.338;2024-03-23T01:15:52;15.05;;;9.35;;
80852;SDS011;70270;43.434;28.338;2024-03-23T01:18:37;18.38;;;10.68;;
80852;SDS011;70270;43.434;28.338;2024-03-23T01:21:22;21.10;;;11.50;;
80852;SDS011;70270;43.434;28.338;2024-03-23T01:24:06;20.40;;;11.10;;
80852;SDS011;70270;43.434;28.338;2024-03-23T01:26:52;17.08;;;9.75;;
80852;SDS011;70270;43.434;28.338;2024-03-23T01:29:37;19.88;;;10.68;;
80852;SDS011;70270;43.434;28.338;2024-03-23T01:32:22;16.98;;;9.68;;
80852;SDS011;70270;43.434;28.338;2024-03-23T01:35:07;14.18;;;8.77;;
80852;SDS011;70270;43.434;28.338;2024-03-23T01:37:52;15.68;;;9.80;;
80852;SDS011;70270;43.434;28.338;2024-03-23T01:40:36;16.38;;;9.15;;
80852;SDS011;70270;43.434;28.338;2024-03-23T01:43:20;13.70;;;8.55;;
80852;SDS011;70270;43.434;28.338;2024-03-23T01:46:05;14.25;;;9.70;;
80852;SDS011;70270;43.434;28.338;2024-03-23T01:48:50;17.58;;;9.20;;
80852;SDS011;70270;43.434;28.338;2024-03-23T01:51:35;12.85;;;8.43;;
80852;SDS011;70270;43.434;28.338;2024-03-23T01:54:20;14.00;;;8.38;;
80852;SDS011;70270;43.434;28.338;2024-03-23T01:57:07;14.15;;;8.43;;
80852;SDS011;70270;43.434;28.338;2024-03-23T01:59:52;13.75;;;8.13;;
80852;SDS011;70270;43.434;28.338;2024-03-23T02:02:46;13.73;;;8.38;;
80852;SDS011;70270;43.434;28.338;2024-03-23T02:05:30;12.63;;;8.00;;
80852;SDS011;70270;43.434;28.338;2024-03-23T02:08:15;14.10;;;8.48;;
80852;SDS011;70270;43.434;28.338;2024-03-23T02:11:01;13.18;;;8.70;;
80852;SDS011;70270;43.434;28.338;2024-03-23T02:13:46;15.55;;;8.40;;
80852;SDS011;70270;43.434;28.338;2024-03-23T02:16:30;13.52;;;8.90;;
80852;SDS011;70270;43.434;28.338;2024-03-23T02:19:15;14.07;;;7.50;;
80852;SDS011;70270;43.434;28.338;2024-03-23T02:21:59;13.07;;;7.95;;
80852;SDS011;70270;43.434;28.338;2024-03-23T02:24:44;13.07;;;8.45;;
80852;SDS011;70270;43.434;28.338;2024-03-23T02:27:28;13.85;;;8.77;;
80852;SDS011;70270;43.434;28.338;2024-03-23T02:30:13;12.10;;;7.88;;
80852;SDS011;70270;43.434;28.338;2024-03-23T02:32:57;14.25;;;7.88;;
80852;SDS011;70270;43.434;28.338;2024-03-23T02:35:43;12.32;;;7.63;;
80852;SDS011;70270;43.434;28.338;2024-03-23T02:38:28;13.25;;;8.00;;
80852;SDS011;70270;43.434;28.338;2024-03-23T02:41:12;12.90;;;7.75;;
80852;SDS011;70270;43.434;28.338;2024-03-23T02:43:57;12.93;;;7.60;;
80852;SDS011;70270;43.434;28.338;2024-03-23T02:46:42;12.60;;;7.93;;
80852;SDS011;70270;43.434;28.338;2024-03-23T02:49:26;14.32;;;8.25;;
80852;SDS011;70270;43.434;28.338;2024-03-23T02:52:11;16.27;;;8.05;;
80852;SDS011;70270;43.434;28.338;2024-03-23T02:54:55;13.93;;;7.90;;
80852;SDS011;70270;43.434;28.338;2024-03-23T02:57:40;14.70;;;8.73;;
80852;SDS011;70270;43.434;28.338;2024-03-23T03:00:25;16.27;;;8.35;;
80852;SDS011;70270;43.434;28.338;2024-03-23T03:03:09;13.80;;;8.80;;
80852;SDS011;70270;43.434;28.338;2024-03-23T03:05:54;13.98;;;8.45;;
80852;SDS011;70270;43.434;28.338;2024-03-23T03:08:39;14.18;;;8.05;;
80852;SDS011;70270;43.434;28.338;2024-03-23T03:11:24;16.40;;;8.98;;
80852;SDS011;70270;43.434;28.338;2024-03-23T03:14:08;14.02;;;8.20;;
80852;SDS011;70270;43.434;28.338;2024-03-23T03:16:53;15.38;;;8.70;;
80852;SDS011;70270;43.434;28.338;2024-03-23T03:19:37;15.20;;;9.05;;
80852;SDS011;70270;43.434;28.338;2024-03-23T03:22:22;13.63;;;8.25;;
80852;SDS011;70270;43.434;28.338;2024-03-23T03:25:07;14.07;;;8.88;;
80852;SDS011;70270;43.434;28.338;2024-03-23T03:27:51;10.43;;;7.35;;
80852;SDS011;70270;43.434;28.338;2024-03-23T03:30:36;17.30;;;8.10;;
80852;SDS011;70270;43.434;28.338;2024-03-23T03:33:20;16.00;;;8.95;;
80852;SDS011;70270;43.434;28.338;2024-03-23T03:36:05;14.45;;;8.05;;
80852;SDS011;70270;43.434;28.338;2024-03-23T03:38:49;15.40;;;8.45;;
80852;SDS011;70270;43.434;28.338;2024-03-23T03:41:34;16.25;;;8.32;;
80852;SDS011;70270;43.434;28.338;2024-03-23T03:44:18;18.40;;;8.70;;
80852;SDS011;70270;43.434;28.338;2024-03-23T03:47:03;13.68;;;7.93;;
80852;SDS011;70270;43.434;28.338;2024-03-23T03:49:49;15.38;;;8.73;;
80852;SDS011;70270;43.434;28.338;2024-03-23T03:52:34;13.25;;;8.52;;
80852;SDS011;70270;43.434;28.338;2024-03-23T03:55:18;13.13;;;8.50;;
80852;SDS011;70270;43.434;28.338;2024-03-23T03:58:03;15.52;;;9.15;;
80852;SDS011;70270;43.434;28.338;2024-03-23T04:00:48;15.65;;;8.38;;
80852;SDS011;70270;43.434;28.338;2024-03-23T04:03:32;15.30;;;8.63;;
80852;SDS011;70270;43.434;28.338;2024-03-23T04:06:20;16.52;;;8.90;;
80852;SDS011;70270;43.434;28.338;2024-03-23T04:09:04;15.75;;;8.75;;
80852;SDS011;70270;43.434;28.338;2024-03-23T04:11:50;15.35;;;8.68;;
80852;SDS011;70270;43.434;28.338;2024-03-23T04:14:35;14.60;;;9.02;;
80852;SDS011;70270;43.434;28.338;2024-03-23T04:17:19;15.70;;;9.57;;
80852;SDS011;70270;43.434;28.338;2024-03-23T04:20:04;17.70;;;9.10;;
80852;SDS011;70270;43.434;28.338;2024-03-23T04:22:53;20.85;;;10.98;;
80852;SDS011;70270;43.434;28.338;2024-03-23T04:25:38;20.83;;;10.25;;
80852;SDS011;70270;43.434;28.338;2024-03-23T04:28:22;19.58;;;10.13;;
80852;SDS011;70270;43.434;28.338;2024-03-23T04:31:07;21.55;;;10.57;;
80852;SDS011;70270;43.434;28.338;2024-03-23T04:33:51;17.55;;;9.82;;
80852;SDS011;70270;43.434;28.338;2024-03-23T04:36:36;46.10;;;22.38;;
80852;SDS011;70270;43.434;28.338;2024-03-23T04:39:20;78.22;;;36.88;;
80852;SDS011;70270;43.434;28.338;2024-03-23T04:42:05;45.75;;;24.05;;
80852;SDS011;70270;43.434;28.338;2024-03-23T04:44:49;25.98;;;13.73;;
80852;SDS011;70270;43.434;28.338;2024-03-23T04:47:34;24.23;;;13.10;;
80852;SDS011;70270;43.434;28.338;2024-03-23T04:50:20;35.05;;;19.77;;
80852;SDS011;70270;43.434;28.338;2024-03-23T04:53:05;138.90;;;60.38;;
80852;SDS011;70270;43.434;28.338;2024-03-23T04:55:49;63.65;;;32.28;;
80852;SDS011;70270;43.434;28.338;2024-03-23T04:58:34;104.60;;;47.53;;
80852;SDS011;70270;43.434;28.338;2024-03-23T05:01:18;22.77;;;11.95;;
80852;SDS011;70270;43.434;28.338;2024-03-23T05:04:03;30.63;;;16.48;;
80852;SDS011;70270;43.434;28.338;2024-03-23T05:06:48;22.80;;;10.43;;
80852;SDS011;70270;43.434;28.338;2024-03-23T05:09:32;15.85;;;9.68;;
80852;SDS011;70270;43.434;28.338;2024-03-23T05:12:17;17.25;;;9.30;;
80852;SDS011;70270;43.434;28.338;2024-03-23T05:15:02;14.93;;;8.35;;
80852;SDS011;70270;43.434;28.338;2024-03-23T05:17:47;13.77;;;7.47;;
80852;SDS011;70270;43.434;28.338;2024-03-23T05:20:32;17.77;;;8.82;;
80852;SDS011;70270;43.434;28.338;2024-03-23T05:23:16;13.55;;;7.47;;
80852;SDS011;70270;43.434;28.338;2024-03-23T05:26:01;14.70;;;9.15;;
80852;SDS011;70270;43.434;28.338;2024-03-23T05:28:45;18.35;;;10.43;;
80852;SDS011;70270;43.434;28.338;2024-03-23T05:31:30;19.48;;;10.73;;
80852;SDS011;70270;43.434;28.338;2024-03-23T05:34:17;18.73;;;10.73;;
80852;SDS011;70270;43.434;28.338;2024-03-23T05:37:02;16.45;;;10.30;;
80852;SDS011;70270;43.434;28.338;2024-03-23T05:39:47;19.45;;;11.00;;
80852;SDS011;70270;43.434;28.338;2024-03-23T05:42:33;16.77;;;9.68;;
80852;SDS011;70270;43.434;28.338;2024-03-23T05:45:19;14.43;;;8.57;;
80852;SDS011;70270;43.434;28.338;2024-03-23T05:48:04;24.98;;;8.45;;
80852;SDS011;70270;43.434;28.338;2024-03-23T05:50:49;13.85;;;7.70;;
80852;SDS011;70270;43.434;28.338;2024-03-23T05:53:34;10.55;;;7.13;;
80852;SDS011;70270;43.434;28.338;2024-03-23T05:56:19;11.63;;;6.72;;
80852;SDS011;70270;43.434;28.338;2024-03-23T05:59:04;12.50;;;7.32;;
80852;SDS011;70270;43.434;28.338;2024-03-23T06:01:49;12.18;;;6.68;;
80852;SDS011;70270;43.434;28.338;2024-03-23T06:04:33;12.40;;;6.60;;
80852;SDS011;70270;43.434;28.338;2024-03-23T06:07:18;9.90;;;7.00;;
80852;SDS011;70270;43.434;28.338;2024-03-23T06:10:02;10.80;;;6.13;;
80852;SDS011;70270;43.434;28.338;2024-03-23T06:12:48;11.50;;;6.10;;
80852;SDS011;70270;43.434;28.338;2024-03-23T06:15:33;13.45;;;7.22;;
80852;SDS011;70270;43.434;28.338;2024-03-23T06:18:21;12.48;;;6.78;;
80852;SDS011;70270;43.434;28.338;2024-03-23T06:21:08;13.13;;;7.07;;
80852;SDS011;70270;43.434;28.338;2024-03-23T06:23:57;14.52;;;7.20;;
80852;SDS011;70270;43.434;28.338;2024-03-23T06:26:41;10.73;;;6.65;;
80852;SDS011;70270;43.434;28.338;2024-03-23T06:29:26;10.32;;;5.50;;
80852;SDS011;70270;43.434;28.338;2024-03-23T06:32:10;12.45;;;6.30;;
80852;SDS011;70270;43.434;28.338;2024-03-23T06:34:55;15.68;;;8.32;;
80852;SDS011;70270;43.434;28.338;2024-03-23T06:37:40;11.05;;;6.43;;
80852;SDS011;70270;43.434;28.338;2024-03-23T06:40:25;13.98;;;6.60;;
80852;SDS011;70270;43.434;28.338;2024-03-23T06:43:09;11.05;;;6.38;;
80852;SDS011;70270;43.434;28.338;2024-03-23T06:45:54;12.52;;;5.93;;
80852;SDS011;70270;43.434;28.338;2024-03-23T06:48:39;12.95;;;6.65;;
80852;SDS011;70270;43.434;28.338;2024-03-23T06:51:23;18.05;;;9.25;;
80852;SDS011;70270;43.434;28.338;2024-03-23T06:54:07;30.00;;;15.35;;
80852;SDS011;70270;43.434;28.338;2024-03-23T06:56:52;67.22;;;31.52;;
80852;SDS011;70270;43.434;28.338;2024-03-23T06:59:36;31.30;;;16.60;;
80852;SDS011;70270;43.434;28.338;2024-03-23T07:02:21;23.73;;;11.38;;
80852;SDS011;70270;43.434;28.338;2024-03-23T07:05:06;40.47;;;21.15;;
80852;SDS011;70270;43.434;28.338;2024-03-23T07:07:50;24.83;;;13.35;;
80852;SDS011;70270;43.434;28.338;2024-03-23T07:10:38;46.38;;;22.52;;
80852;SDS011;70270;43.434;28.338;2024-03-23T07:13:24;17.48;;;9.00;;
80852;SDS011;70270;43.434;28.338;2024-03-23T07:16:09;19.92;;;9.98;;
80852;SDS011;70270;43.434;28.338;2024-03-23T07:18:54;13.43;;;7.28;;
80852;SDS011;70270;43.434;28.338;2024-03-23T07:21:39;14.32;;;8.48;;
80852;SDS011;70270;43.434;28.338;2024-03-23T07:24:24;41.22;;;21.10;;
80852;SDS011;70270;43.434;28.338;2024-03-23T07:27:08;14.90;;;8.50;;
80852;SDS011;70270;43.434;28.338;2024-03-23T07:29:55;17.95;;;7.97;;
80852;SDS011;70270;43.434;28.338;2024-03-23T07:32:39;22.40;;;10.20;;
80852;SDS011;70270;43.434;28.338;2024-03-23T07:35:24;10.45;;;6.22;;
80852;SDS011;70270;43.434;28.338;2024-03-23T07:38:08;8.80;;;5.80;;
80852;SDS011;70270;43.434;28.338;2024-03-23T07:41:02;10.50;;;5.90;;
80852;SDS011;70270;43.434;28.338;2024-03-23T07:43:50;9.27;;;5.70;;
80852;SDS011;70270;43.434;28.338;2024-03-23T07:46:35;8.23;;;5.53;;
80852;SDS011;70270;43.434;28.338;2024-03-23T07:49:19;28.02;;;7.55;;
80852;SDS011;70270;43.434;28.338;2024-03-23T07:52:04;9.35;;;5.80;;
80852;SDS011;70270;43.434;28.338;2024-03-23T07:54:49;8.38;;;5.10;;
80852;SDS011;70270;43.434;28.338;2024-03-23T07:57:33;10.13;;;6.38;;
80852;SDS011;70270;43.434;28.338;2024-03-23T08:00:17;15.93;;;7.50;;
80852;SDS011;70270;43.434;28.338;2024-03-23T08:03:02;12.20;;;6.43;;
80852;SDS011;70270;43.434;28.338;2024-03-23T08:05:46;15.82;;;6.18;;
80852;SDS011;70270;43.434;28.338;2024-03-23T08:08:31;9.82;;;6.07;;
80852;SDS011;70270;43.434;28.338;2024-03-23T08:11:16;15.52;;;7.22;;
80852;SDS011;70270;43.434;28.338;2024-03-23T08:14:00;11.15;;;6.10;;
80852;SDS011;70270;43.434;28.338;2024-03-23T08:16:48;10.73;;;5.95;;
80852;SDS011;70270;43.434;28.338;2024-03-23T08:19:34;12.32;;;5.57;;
80852;SDS011;70270;43.434;28.338;2024-03-23T08:22:18;9.60;;;5.90;;
80852;SDS011;70270;43.434;28.338;2024-03-23T08:25:03;9.05;;;5.32;;
80852;SDS011;70270;43.434;28.338;2024-03-23T08:27:48;12.15;;;5.38;;
80852;SDS011;70270;43.434;28.338;2024-03-23T08:30:34;9.43;;;6.45;;
80852;SDS011;70270;43.434;28.338;2024-03-23T08:33:19;9.45;;;5.80;;
80852;SDS011;70270;43.434;28.338;2024-03-23T08:36:05;10.90;;;6.38;;
80852;SDS011;70270;43.434;28.338;2024-03-23T08:38:51;11.57;;;7.07;;
80852;SDS011;70270;43.434;28.338;2024-03-23T08:41:38;12.75;;;6.35;;
80852;SDS011;70270;43.434;28.338;2024-03-23T08:44:22;10.98;;;6.72;;
80852;SDS011;70270;43.434;28.338;2024-03-23T08:47:07;10.73;;;6.35;;
80852;SDS011;70270;43.434;28.338;2024-03-23T08:49:51;16.38;;;6.35;;
80852;SDS011;70270;43.434;28.338;2024-03-23T08:52:36;10.95;;;6.18;;
80852;SDS011;70270;43.434;28.338;2024-03-23T08:55:20;11.57;;;6.45;;
80852;SDS011;70270;43.434;28.338;2024-03-23T08:58:05;14.10;;;7.07;;
80852;SDS011;70270;43.434;28.338;2024-03-23T09:00:53;14.35;;;6.95;;
80852;SDS011;70270;43.434;28.338;2024-03-23T09:03:40;11.57;;;7.45;;
80852;SDS011;70270;43.434;28.338;2024-03-23T09:06:26;12.05;;;7.40;;
80852;SDS011;70270;43.434;28.338;2024-03-23T09:09:10;11.50;;;7.43;;
80852;SDS011;70270;43.434;28.338;2024-03-23T09:11:55;13.45;;;6.85;;
80852;SDS011;70270;43.434;28.338;2024-03-23T09:14:39;11.77;;;6.50;;
80852;SDS011;70270;43.434;28.338;2024-03-23T09:17:24;12.07;;;6.60;;
80852;SDS011;70270;43.434;28.338;2024-03-23T09:20:08;11.77;;;6.25;;
80852;SDS011;70270;43.434;28.338;2024-03-23T09:22:53;13.38;;;7.07;;
80852;SDS011;70270;43.434;28.338;2024-03-23T09:25:38;12.73;;;7.35;;
80852;SDS011;70270;43.434;28.338;2024-03-23T09:28:23;12.10;;;7.45;;
80852;SDS011;70270;43.434;28.338;2024-03-23T09:31:08;11.60;;;7.05;;
80852;SDS011;70270;43.434;28.338;2024-03-23T09:33:58;12.85;;;7.78;;
80852;SDS011;70270;43.434;28.338;2024-03-23T09:36:42;12.68;;;7.55;;
80852;SDS011;70270;43.434;28.338;2024-03-23T09:39:26;12.40;;;7.35;;
80852;SDS011;70270;43.434;28.338;2024-03-23T09:42:11;14.63;;;8.20;;
80852;SDS011;70270;43.434;28.338;2024-03-23T09:44:56;17.60;;;8.00;;
80852;SDS011;70270;43.434;28.338;2024-03-23T09:50:26;19.63;;;8.35;;
80852;SDS011;70270;43.434;28.338;2024-03-23T09:53:11;13.70;;;8.25;;
80852;SDS011;70270;43.434;28.338;2024-03-23T09:55:56;12.68;;;7.57;;
80852;SDS011;70270;43.434;28.338;2024-03-23T09:58:41;14.55;;;8.73;;
80852;SDS011;70270;43.434;28.338;2024-03-23T10:01:26;15.18;;;8.32;;
80852;SDS011;70270;43.434;28.338;2024-03-23T10:04:10;15.75;;;8.52;;
80852;SDS011;70270;43.434;28.338;2024-03-23T10:06:55;18.20;;;9.23;;
80852;SDS011;70270;43.434;28.338;2024-03-23T10:09:54;19.13;;;8.82;;
80852;SDS011;70270;43.434;28.338;2024-03-23T10:12:43;18.70;;;9.02;;
80852;SDS011;70270;43.434;28.338;2024-03-23T10:18:18;9.35;;;6.05;;
80852;SDS011;70270;43.434;28.338;2024-03-23T10:21:08;12.82;;;6.85;;
80852;SDS011;70270;43.434;28.338;2024-03-23T10:23:55;23.25;;;7.32;;
80852;SDS011;70270;43.434;28.338;2024-03-23T10:26:39;12.77;;;7.07;;
80852;SDS011;70270;43.434;28.338;2024-03-23T10:29:24;11.45;;;7.00;;
80852;SDS011;70270;43.434;28.338;2024-03-23T10:32:11;10.93;;;5.85;;
80852;SDS011;70270;43.434;28.338;2024-03-23T10:34:57;9.23;;;5.70;;
80852;SDS011;70270;43.434;28.338;2024-03-23T10:37:58;10.45;;;5.93;;
80852;SDS011;70270;43.434;28.338;2024-03-23T10:40:42;7.80;;;5.65;;
80852;SDS011;70270;43.434;28.338;2024-03-23T10:43:28;10.60;;;6.28;;
80852;SDS011;70270;43.434;28.338;2024-03-23T10:46:17;8.35;;;5.00;;
80852;SDS011;70270;43.434;28.338;2024-03-23T10:49:01;8.35;;;5.07;;
80852;SDS011;70270;43.434;28.338;2024-03-23T10:51:46;8.50;;;5.13;;
80852;SDS011;70270;43.434;28.338;2024-03-23T10:54:31;7.82;;;5.28;;
80852;SDS011;70270;43.434;28.338;2024-03-23T10:57:21;8.43;;;4.88;;
80852;SDS011;70270;43.434;28.338;2024-03-23T11:00:11;10.85;;;5.28;;
80852;SDS011;70270;43.434;28.338;2024-03-23T11:02:56;8.32;;;4.13;;
80852;SDS011;70270;43.434;28.338;2024-03-23T11:05:46;7.88;;;4.68;;
80852;SDS011;70270;43.434;28.338;2024-03-23T11:08:31;10.95;;;4.57;;
80852;SDS011;70270;43.434;28.338;2024-03-23T11:14:05;6.25;;;4.38;;
80852;SDS011;70270;43.434;28.338;2024-03-23T11:17:09;7.55;;;4.70;;
80852;SDS011;70270;43.434;28.338;2024-03-23T11:19:55;8.02;;;4.88;;
80852;SDS011;70270;43.434;28.338;2024-03-23T11:22:44;7.40;;;4.53;;
80852;SDS011;70270;43.434;28.338;2024-03-23T11:25:32;6.85;;;4.13;;
80852;SDS011;70270;43.434;28.338;2024-03-23T11:28:17;10.15;;;5.35;;
80852;SDS011;70270;43.434;28.338;2024-03-23T11:31:01;9.52;;;5.43;;
80852;SDS011;70270;43.434;28.338;2024-03-23T11:34:02;9.43;;;5.05;;
80852;SDS011;70270;43.434;28.338;2024-03-23T11:36:48;10.57;;;5.50;;
80852;SDS011;70270;43.434;28.338;2024-03-23T11:39:36;8.27;;;5.30;;
80852;SDS011;70270;43.434;28.338;2024-03-23T11:42:20;10.35;;;5.40;;
80852;SDS011;70270;43.434;28.338;2024-03-23T11:45:09;8.60;;;5.40;;
80852;SDS011;70270;43.434;28.338;2024-03-23T11:50:57;8.00;;;5.00;;
80852;SDS011;70270;43.434;28.338;2024-03-23T11:53:42;8.15;;;5.35;;
80852;SDS011;70270;43.434;28.338;2024-03-23T11:56:27;8.18;;;4.97;;
80852;SDS011;70270;43.434;28.338;2024-03-23T11:59:11;7.90;;;5.22;;
80852;SDS011;70270;43.434;28.338;2024-03-23T12:01:56;7.20;;;4.88;;
80852;SDS011;70270;43.434;28.338;2024-03-23T12:04:41;6.47;;;3.97;;
80852;SDS011;70270;43.434;28.338;2024-03-23T12:07:26;8.55;;;5.45;;
80852;SDS011;70270;43.434;28.338;2024-03-23T12:10:10;16.50;;;5.22;;
80852;SDS011;70270;43.434;28.338;2024-03-23T12:13:01;10.95;;;4.82;;
80852;SDS011;70270;43.434;28.338;2024-03-23T12:15:49;8.65;;;5.47;;
80852;SDS011;70270;43.434;28.338;2024-03-23T12:18:35;9.57;;;5.72;;
80852;SDS011;70270;43.434;28.338;2024-03-23T12:21:20;12.45;;;5.65;;
80852;SDS011;70270;43.434;28.338;2024-03-23T12:24:06;11.40;;;6.05;;
80852;SDS011;70270;43.434;28.338;2024-03-23T12:26:51;9.68;;;5.20;;
80852;SDS011;70270;43.434;28.338;2024-03-23T12:29:36;8.35;;;4.93;;
80852;SDS011;70270;43.434;28.338;2024-03-23T12:32:20;12.57;;;4.72;;
80852;SDS011;70270;43.434;28.338;2024-03-23T12:35:05;8.30;;;4.93;;
80852;SDS011;70270;43.434;28.338;2024-03-23T12:37:49;10.25;;;6.00;;
80852;SDS011;70270;43.434;28.338;2024-03-23T12:40:33;10.68;;;5.78;;
80852;SDS011;70270;43.434;28.338;2024-03-23T12:43:18;8.88;;;5.50;;
80852;SDS011;70270;43.434;28.338;2024-03-23T12:46:03;9.82;;;6.20;;
80852;SDS011;70270;43.434;28.338;2024-03-23T12:48:47;8.82;;;5.97;;
80852;SDS011;70270;43.434;28.338;2024-03-23T12:51:32;16.40;;;8.48;;
80852;SDS011;70270;43.434;28.338;2024-03-23T12:54:17;10.02;;;6.80;;
80852;SDS011;70270;43.434;28.338;2024-03-23T12:57:01;13.13;;;7.60;;
80852;SDS011;70270;43.434;28.338;2024-03-23T12:59:46;10.20;;;6.43;;
80852;SDS011;70270;43.434;28.338;2024-03-23T13:02:35;11.85;;;7.72;;
80852;SDS011;70270;43.434;28.338;2024-03-23T13:05:19;13.15;;;7.55;;
80852;SDS011;70270;43.434;28.338;2024-03-23T13:08:04;13.45;;;7.82;;
80852;SDS011;70270;43.434;28.338;2024-03-23T13:10:52;18.05;;;8.18;;
80852;SDS011;70270;43.434;28.338;2024-03-23T13:13:37;12.90;;;8.88;;
80852;SDS011;70270;43.434;28.338;2024-03-23T13:16:22;11.57;;;7.78;;
80852;SDS011;70270;43.434;28.338;2024-03-23T13:19:06;13.52;;;8.55;;
80852;SDS011;70270;43.434;28.338;2024-03-23T13:21:50;13.95;;;8.05;;
80852;SDS011;70270;43.434;28.338;2024-03-23T13:24:35;13.00;;;7.72;;
80852;SDS011;70270;43.434;28.338;2024-03-23T13:27:20;14.40;;;8.32;;
80852;SDS011;70270;43.434;28.338;2024-03-23T13:30:07;13.13;;;8.10;;
80852;SDS011;70270;43.434;28.338;2024-03-23T13:32:52;13.45;;;8.40;;
80852;SDS011;70270;43.434;28.338;2024-03-23T13:35:37;13.98;;;7.10;;
80852;SDS011;70270;43.434;28.338;2024-03-23T13:38:21;13.13;;;8.45;;
80852;SDS011;70270;43.434;28.338;2024-03-23T13:41:07;15.45;;;7.82;;
80852;SDS011;70270;43.434;28.338;2024-03-23T13:43:52;10.20;;;6.57;;
80852;SDS011;70270;43.434;28.338;2024-03-23T13:46:37;10.88;;;7.30;;
80852;SDS011;70270;43.434;28.338;2024-03-23T13:49:26;9.38;;;7.80;;
80852;SDS011;70270;43.434;28.338;2024-03-23T13:52:15;15.63;;;8.30;;
80852;SDS011;70270;43.434;28.338;2024-03-23T13:54:59;16.60;;;7.40;;
80852;SDS011;70270;43.434;28.338;2024-03-23T13:57:44;11.38;;;7.20;;
80852;SDS011;70270;43.434;28.338;2024-03-23T14:00:28;11.05;;;7.53;;
80852;SDS011;70270;43.434;28.338;2024-03-23T14:03:13;9.98;;;7.10;;
80852;SDS011;70270;43.434;28.338;2024-03-23T14:05:58;11.10;;;7.47;;
80852;SDS011;70270;43.434;28.338;2024-03-23T14:08:45;11.13;;;7.75;;
80852;SDS011;70270;43.434;28.338;2024-03-23T14:11:30;10.55;;;7.45;;
80852;SDS011;70270;43.434;28.338;2024-03-23T14:14:15;18.70;;;7.32;;
80852;SDS011;70270;43.434;28.338;2024-03-23T14:17:02;9.48;;;6.47;;
80852;SDS011;70270;43.434;28.338;2024-03-23T14:19:46;9.93;;;7.55;;
80852;SDS011;70270;43.434;28.338;2024-03-23T14:22:31;12.13;;;7.25;;
80852;SDS011;70270;43.434;28.338;2024-03-23T14:25:16;9.52;;;6.97;;
80852;SDS011;70270;43.434;28.338;2024-03-23T14:28:00;11.10;;;8.07;;
80852;SDS011;70270;43.434;28.338;2024-03-23T14:30:45;9.55;;;7.88;;
80852;SDS011;70270;43.434;28.338;2024-03-23T14:33:29;13.45;;;7.95;;
80852;SDS011;70270;43.434;28.338;2024-03-23T14:36:14;10.13;;;7.60;;
80852;SDS011;70270;43.434;28.338;2024-03-23T14:39:00;12.40;;;7.93;;
80852;SDS011;70270;43.434;28.338;2024-03-23T14:41:45;9.07;;;7.28;;
80852;SDS011;70270;43.434;28.338;2024-03-23T14:44:29;11.95;;;8.32;;
80852;SDS011;70270;43.434;28.338;2024-03-23T14:47:14;8.57;;;6.72;;
80852;SDS011;70270;43.434;28.338;2024-03-23T14:49:58;10.48;;;7.75;;
80852;SDS011;70270;43.434;28.338;2024-03-23T14:52:45;10.75;;;6.82;;
80852;SDS011;70270;43.434;28.338;2024-03-23T14:55:30;10.50;;;7.53;;
80852;SDS011;70270;43.434;28.338;2024-03-23T14:58:14;10.85;;;7.65;;
80852;SDS011;70270;43.434;28.338;2024-03-23T15:01:06;14.95;;;7.63;;
80852;SDS011;70270;43.434;28.338;2024-03-23T15:03:55;11.75;;;8.05;;
80852;SDS011;70270;43.434;28.338;2024-03-23T15:06:39;14.23;;;7.82;;
80852;SDS011;70270;43.434;28.338;2024-03-23T15:09:23;14.10;;;8.65;;
80852;SDS011;70270;43.434;28.338;2024-03-23T15:12:08;10.75;;;8.13;;
80852;SDS011;70270;43.434;28.338;2024-03-23T15:14:52;14.38;;;8.95;;
80852;SDS011;70270;43.434;28.338;2024-03-23T15:17:37;25.88;;;12.90;;
80852;SDS011;70270;43.434;28.338;2024-03-23T15:20:25;11.93;;;8.23;;
80852;SDS011;70270;43.434;28.338;2024-03-23T15:23:09;10.13;;;7.85;;
80852;SDS011;70270;43.434;28.338;2024-03-23T15:25:57;9.80;;;8.02;;
80852;SDS011;70270;43.434;28.338;2024-03-23T15:28:47;12.60;;;9.68;;
80852;SDS011;70270;43.434;28.338;2024-03-23T15:31:44;10.55;;;8.00;;
80852;SDS011;70270;43.434;28.338;2024-03-23T15:34:29;17.73;;;11.35;;
80852;SDS011;70270;43.434;28.338;2024-03-23T15:37:14;13.95;;;9.68;;
80852;SDS011;70270;43.434;28.338;2024-03-23T15:39:58;16.25;;;9.77;;
80852;SDS011;70270;43.434;28.338;2024-03-23T15:42:43;12.82;;;11.27;;
80852;SDS011;70270;43.434;28.338;2024-03-23T15:45:27;12.50;;;9.60;;
80852;SDS011;70270;43.434;28.338;2024-03-23T15:48:12;14.68;;;8.90;;
80852;SDS011;70270;43.434;28.338;2024-03-23T15:50:57;21.08;;;13.68;;
80852;SDS011;70270;43.434;28.338;2024-03-23T15:53:43;17.25;;;10.27;;
80852;SDS011;70270;43.434;28.338;2024-03-23T15:56:31;19.45;;;11.25;;
80852;SDS011;70270;43.434;28.338;2024-03-23T15:59:18;19.75;;;11.88;;
80852;SDS011;70270;43.434;28.338;2024-03-23T16:02:02;15.10;;;9.45;;
80852;SDS011;70270;43.434;28.338;2024-03-23T16:04:47;21.52;;;13.27;;
80852;SDS011;70270;43.434;28.338;2024-03-23T16:07:31;20.15;;;10.65;;
80852;SDS011;70270;43.434;28.338;2024-03-23T16:10:16;11.90;;;9.85;;
80852;SDS011;70270;43.434;28.338;2024-03-23T16:13:00;16.83;;;11.02;;
80852;SDS011;70270;43.434;28.338;2024-03-23T16:15:45;18.02;;;11.30;;
80852;SDS011;70270;43.434;28.338;2024-03-23T16:18:38;17.25;;;11.15;;
80852;SDS011;70270;43.434;28.338;2024-03-23T16:21:23;22.40;;;13.23;;
80852;SDS011;70270;43.434;28.338;2024-03-23T16:24:08;15.80;;;10.68;;
80852;SDS011;70270;43.434;28.338;2024-03-23T16:26:53;12.80;;;9.35;;
80852;SDS011;70270;43.434;28.338;2024-03-23T16:29:37;15.95;;;11.43;;
80852;SDS011;70270;43.434;28.338;2024-03-23T16:32:22;17.33;;;12.40;;
80852;SDS011;70270;43.434;28.338;2024-03-23T16:35:08;16.60;;;12.70;;
80852;SDS011;70270;43.434;28.338;2024-03-23T16:37:56;16.10;;;11.10;;
80852;SDS011;70270;43.434;28.338;2024-03-23T16:40:40;18.77;;;12.40;;
80852;SDS011;70270;43.434;28.338;2024-03-23T16:43:25;16.83;;;11.63;;
80852;SDS011;70270;43.434;28.338;2024-03-23T16:46:13;16.83;;;10.98;;
80852;SDS011;70270;43.434;28.338;2024-03-23T16:48:59;17.85;;;9.23;;
80852;SDS011;70270;43.434;28.338;2024-03-23T16:51:45;17.73;;;10.63;;
80852;SDS011;70270;43.434;28.338;2024-03-23T16:54:29;19.60;;;11.57;;
80852;SDS011;70270;43.434;28.338;2024-03-23T16:57:14;17.90;;;10.75;;
80852;SDS011;70270;43.434;28.338;2024-03-23T16:59:58;17.33;;;11.98;;
80852;SDS011;70270;43.434;28.338;2024-03-23T17:02:43;18.42;;;11.90;;
80852;SDS011;70270;43.434;28.338;2024-03-23T17:05:27;16.70;;;11.18;;
80852;SDS011;70270;43.434;28.338;2024-03-23T17:08:12;19.63;;;12.27;;
80852;SDS011;70270;43.434;28.338;2024-03-23T17:10:57;19.73;;;11.40;;
80852;SDS011;70270;43.434;28.338;2024-03-23T17:13:43;15.93;;;9.93;;